createdAt,value
2022-12-19T00:01:34.914Z,7.50
2022-12-19T00:04:02.263Z,2.90
2022-12-19T00:06:35.312Z,9.23
2022-12-19T00:09:02.440Z,6.53
2022-12-19T00:11:29.699Z,5.38
2022-12-19T00:13:56.915Z,3.38
2022-12-19T00:16:24.136Z,4.82
2022-12-19T00:18:51.364Z,13.50
2022-12-19T00:21:22.543Z,5.07
2022-12-19T00:23:49.817Z,5.07
2022-12-19T00:26:17.076Z,3.40
2022-12-19T00:28:46.488Z,9.57
2022-12-19T00:31:14.726Z,7.13
2022-12-19T00:33:43.510Z,8.52
2022-12-19T00:36:12.363Z,8.90
2022-12-19T00:38:39.534Z,10.15
2022-12-19T00:41:09.359Z,3.90
2022-12-19T00:43:36.636Z,4.00
2022-12-19T00:46:04.087Z,4.40
2022-12-19T00:48:31.364Z,8.88
2022-12-19T00:50:58.581Z,8.38
2022-12-19T00:53:25.863Z,10.73
2022-12-19T00:55:53.051Z,12.27
2022-12-19T00:58:20.374Z,4.10
2022-12-19T01:00:48.805Z,7.47
2022-12-19T01:03:16.099Z,4.13
2022-12-19T01:05:43.325Z,8.45
2022-12-19T01:08:10.882Z,5.80
2022-12-19T01:10:39.227Z,8.50
2022-12-19T01:13:07.528Z,4.43
2022-12-19T01:15:34.884Z,7.28
2022-12-19T01:18:04.572Z,6.85
2022-12-19T01:20:31.868Z,8.65
2022-12-19T01:23:00.392Z,12.88
2022-12-19T01:25:28.365Z,9.18
2022-12-19T01:27:55.675Z,12.48
2022-12-19T01:30:22.828Z,8.82
2022-12-19T01:32:50.255Z,7.90
2022-12-19T01:35:21.605Z,9.05
2022-12-19T01:37:49.517Z,10.07
2022-12-19T01:40:16.937Z,16.05
2022-12-19T01:42:44.113Z,7.95
2022-12-19T01:45:13.978Z,3.58
2022-12-19T01:47:41.445Z,8.25
2022-12-19T01:50:08.623Z,8.60
2022-12-19T01:52:35.850Z,7.30
2022-12-19T01:55:03.121Z,14.07
2022-12-19T01:57:30.401Z,5.57
2022-12-19T01:59:57.575Z,8.18
2022-12-19T02:02:24.893Z,5.65
2022-12-19T02:04:52.224Z,10.45
2022-12-19T02:07:19.425Z,13.15
2022-12-19T02:09:47.009Z,9.93
2022-12-19T02:12:14.398Z,16.48
2022-12-19T02:14:41.610Z,5.43
2022-12-19T02:17:08.857Z,15.02
2022-12-19T02:19:36.589Z,17.33
2022-12-19T02:22:03.861Z,9.15
2022-12-19T02:24:31.793Z,12.60
2022-12-19T02:27:01.983Z,19.63
2022-12-19T02:29:29.274Z,20.33
2022-12-19T02:31:56.630Z,22.33
2022-12-19T02:34:24.008Z,34.60
2022-12-19T02:37:02.946Z,21.48
2022-12-19T02:39:33.765Z,14.73
2022-12-19T02:42:01.824Z,20.45
2022-12-19T02:44:29.036Z,21.75
2022-12-19T02:46:56.600Z,16.27
2022-12-19T02:49:30.452Z,16.30
2022-12-19T02:51:59.154Z,13.98
2022-12-19T02:54:26.356Z,23.35
2022-12-19T02:56:53.951Z,13.55
2022-12-19T02:59:21.189Z,18.17
2022-12-19T03:01:48.959Z,14.63
2022-12-19T03:04:16.203Z,25.58
2022-12-19T03:06:43.761Z,13.32
2022-12-19T03:09:14.177Z,11.10
2022-12-19T03:11:42.548Z,15.18
2022-12-19T03:14:10.771Z,13.30
2022-12-19T03:16:38.194Z,22.23
2022-12-19T03:19:05.827Z,21.08
2022-12-19T03:21:33.243Z,21.20
2022-12-19T03:24:00.411Z,20.83
2022-12-19T03:26:27.722Z,19.30
2022-12-19T03:28:54.977Z,14.25
2022-12-19T03:31:22.262Z,24.00
2022-12-19T03:33:49.458Z,22.52
2022-12-19T03:36:16.641Z,25.48
2022-12-19T03:38:43.805Z,31.27
2022-12-19T03:41:11.093Z,21.95
2022-12-19T03:43:38.319Z,30.33
2022-12-19T03:46:05.646Z,19.85
2022-12-19T03:48:32.896Z,12.75
2022-12-19T03:51:00.147Z,26.10
2022-12-19T03:53:27.299Z,28.65
2022-12-19T03:55:54.524Z,27.25
2022-12-19T03:58:21.803Z,23.00
2022-12-19T04:00:49.040Z,24.85
2022-12-19T04:03:16.239Z,19.52
2022-12-19T04:05:43.536Z,27.42
2022-12-19T04:08:10.754Z,21.45
2022-12-19T04:10:38.136Z,27.05
2022-12-19T04:13:05.483Z,16.38
2022-12-19T04:15:32.766Z,16.13
2022-12-19T04:18:00.021Z,12.25
2022-12-19T04:20:27.289Z,15.88
2022-12-19T04:22:55.001Z,24.15
2022-12-19T04:25:26.280Z,19.48
2022-12-19T04:27:56.374Z,14.63
2022-12-19T04:30:23.564Z,19.17
2022-12-19T04:32:50.812Z,20.80
2022-12-19T04:35:18.053Z,12.35
2022-12-19T04:37:45.414Z,20.63
2022-12-19T04:40:12.617Z,23.08
2022-12-19T04:42:40.139Z,26.85
2022-12-19T04:45:07.307Z,11.05
2022-12-19T04:47:34.814Z,19.90
2022-12-19T04:50:02.024Z,14.02
2022-12-19T04:52:29.245Z,11.55
2022-12-19T04:54:56.591Z,17.48
2022-12-19T04:57:23.910Z,12.98
2022-12-19T04:59:51.102Z,12.23
2022-12-19T05:02:18.408Z,13.32
2022-12-19T05:04:45.748Z,10.00
2022-12-19T05:07:12.989Z,17.73
2022-12-19T05:09:40.249Z,11.00
2022-12-19T05:12:07.611Z,8.52
2022-12-19T05:14:34.857Z,11.85
2022-12-19T05:17:02.073Z,13.27
2022-12-19T05:19:29.311Z,9.20
2022-12-19T05:21:56.560Z,18.17
2022-12-19T05:24:23.770Z,15.68
2022-12-19T05:26:51.047Z,13.45
2022-12-19T05:29:18.366Z,7.45
2022-12-19T05:31:45.647Z,8.20
2022-12-19T05:34:12.901Z,7.65
2022-12-19T05:36:40.093Z,6.07
2022-12-19T05:39:07.285Z,12.20
2022-12-19T05:41:34.513Z,15.88
2022-12-19T05:44:01.663Z,23.10
2022-12-19T05:46:28.956Z,10.90
2022-12-19T05:48:56.173Z,12.48
2022-12-19T05:51:23.580Z,19.05
2022-12-19T05:53:50.758Z,16.23
2022-12-19T05:56:18.058Z,12.65
2022-12-19T05:58:45.305Z,17.75
2022-12-19T06:01:12.592Z,16.58
2022-12-19T06:03:39.870Z,12.15
2022-12-19T06:06:07.187Z,12.75
2022-12-19T06:08:34.333Z,12.68
2022-12-19T06:11:01.661Z,8.57
2022-12-19T06:13:29.034Z,9.40
2022-12-19T06:15:56.328Z,8.18
2022-12-19T06:18:23.681Z,3.22
2022-12-19T06:20:50.862Z,2.38
2022-12-19T06:23:18.105Z,7.88
2022-12-19T06:25:45.726Z,10.43
2022-12-19T06:28:13.055Z,7.35
2022-12-19T06:30:40.284Z,16.02
2022-12-19T06:33:07.490Z,11.68
2022-12-19T06:35:35.468Z,9.20
2022-12-19T06:38:02.724Z,23.48
2022-12-19T06:40:48.722Z,9.23
2022-12-19T06:43:15.994Z,15.52
2022-12-19T06:45:43.437Z,6.32
2022-12-19T06:48:10.843Z,17.17
2022-12-19T06:50:37.994Z,16.77
2022-12-19T06:53:05.487Z,16.40
2022-12-19T06:55:32.895Z,15.07
2022-12-19T06:58:00.127Z,15.55
2022-12-19T07:00:27.465Z,12.30
2022-12-19T07:02:54.789Z,16.85
2022-12-19T07:05:22.177Z,13.63
2022-12-19T07:07:50.162Z,7.50
2022-12-19T07:10:17.541Z,9.57
2022-12-19T07:12:44.732Z,10.27
2022-12-19T07:15:12.422Z,12.18
2022-12-19T07:17:39.664Z,16.65
2022-12-19T07:20:06.921Z,17.83
2022-12-19T07:22:34.188Z,12.02
2022-12-19T07:25:01.477Z,17.65
2022-12-19T07:27:35.419Z,6.93
2022-12-19T07:30:03.238Z,8.23
2022-12-19T07:32:30.476Z,9.50
2022-12-19T07:34:57.831Z,6.75
2022-12-19T07:37:25.063Z,6.32
2022-12-19T07:39:53.137Z,14.45
2022-12-19T07:42:21.391Z,6.65
2022-12-19T07:44:48.690Z,7.43
2022-12-19T07:47:15.833Z,9.73
2022-12-19T07:49:43.049Z,9.32
2022-12-19T07:52:10.248Z,14.20
2022-12-19T07:54:37.552Z,6.07
2022-12-19T07:57:05.206Z,8.30
2022-12-19T07:59:38.660Z,9.50
2022-12-19T08:02:06.820Z,9.10
2022-12-19T08:04:35.296Z,9.02
2022-12-19T08:07:05.135Z,14.07
2022-12-19T08:09:32.855Z,11.90
2022-12-19T08:12:00.158Z,10.57
2022-12-19T08:14:27.387Z,12.38
2022-12-19T08:19:41.924Z,7.00
2022-12-19T08:22:09.076Z,20.05
2022-12-19T08:24:36.619Z,13.60
2022-12-19T08:27:03.885Z,20.80
2022-12-19T08:29:31.103Z,17.02
2022-12-19T08:31:58.290Z,19.10
2022-12-19T08:34:25.539Z,13.35
2022-12-19T08:36:52.719Z,16.98
2022-12-19T08:39:20.036Z,15.63
2022-12-19T08:41:47.303Z,27.10
2022-12-19T08:44:14.557Z,18.45
2022-12-19T08:46:48.064Z,17.13
2022-12-19T08:49:17.081Z,20.90
2022-12-19T08:51:44.260Z,16.10
2022-12-19T08:54:12.283Z,14.32
2022-12-19T08:56:41.925Z,21.27
2022-12-19T08:59:13.583Z,26.60
2022-12-19T09:01:43.291Z,25.13
2022-12-19T09:05:13.990Z,18.20
2022-12-19T09:06:58.040Z,17.60
2022-12-19T09:09:25.356Z,9.18
2022-12-19T09:11:52.558Z,12.05
2022-12-19T09:14:22.192Z,14.48
2022-12-19T09:16:49.548Z,7.10
2022-12-19T09:19:16.964Z,6.25
2022-12-19T09:21:44.288Z,11.55
2022-12-19T09:24:11.685Z,9.73
2022-12-19T09:26:39.523Z,12.38
2022-12-19T09:29:20.057Z,15.20
2022-12-19T09:31:50.430Z,14.68
2022-12-19T09:34:24.864Z,9.18
2022-12-19T09:37:00.425Z,12.38
2022-12-19T09:39:27.833Z,10.00
2022-12-19T09:41:55.081Z,13.10
2022-12-19T09:44:22.361Z,11.65
2022-12-19T09:46:50.909Z,12.98
2022-12-19T09:49:18.276Z,13.32
2022-12-19T09:51:45.540Z,7.03
2022-12-19T09:54:13.143Z,11.45
2022-12-19T09:56:45.712Z,7.80
2022-12-19T09:59:14.369Z,15.50
2022-12-19T10:01:41.930Z,7.65
2022-12-19T10:04:09.370Z,8.60
2022-12-19T10:07:19.813Z,7.03
2022-12-19T10:11:35.793Z,5.63
2022-12-19T10:12:45.484Z,13.05
2022-12-19T10:14:58.651Z,6.35
2022-12-19T10:17:25.851Z,7.47
2022-12-19T10:19:53.200Z,5.72
2022-12-19T10:22:20.489Z,12.13
2022-12-19T10:25:02.063Z,16.50
2022-12-19T10:27:35.036Z,13.15
2022-12-19T10:30:02.221Z,18.67
2022-12-19T10:32:29.461Z,17.25
2022-12-19T10:34:56.747Z,21.02
2022-12-19T10:37:30.849Z,19.50
2022-12-19T10:40:02.336Z,20.35
2022-12-19T10:42:29.663Z,24.02
2022-12-19T10:44:56.957Z,19.25
2022-12-19T10:47:24.155Z,17.05
2022-12-19T10:49:51.485Z,16.77
2022-12-19T10:52:18.806Z,24.90
2022-12-19T10:54:46.904Z,16.58
2022-12-19T10:57:14.289Z,16.83
2022-12-19T10:59:43.805Z,20.05
2022-12-19T11:02:11.738Z,10.30
2022-12-19T11:04:39.148Z,19.48
2022-12-19T11:07:06.426Z,10.30
2022-12-19T11:09:33.598Z,9.23
2022-12-19T11:15:31.419Z,10.20
2022-12-19T11:19:32.539Z,11.85
2022-12-19T11:23:39.141Z,5.53
2022-12-19T11:29:19.607Z,11.27
2022-12-19T11:29:34.559Z,6.88
2022-12-19T11:29:54.360Z,7.68
2022-12-19T11:30:47.664Z,7.40
2022-12-19T11:34:19.503Z,13.23
2022-12-19T11:36:46.929Z,9.70
2022-12-19T11:39:14.221Z,18.25
2022-12-19T11:41:41.411Z,12.30
2022-12-19T11:44:08.669Z,17.20
2022-12-19T11:46:35.936Z,27.23
2022-12-19T11:49:03.430Z,10.73
2022-12-19T11:51:30.689Z,18.75
2022-12-19T11:53:58.156Z,25.17
2022-12-19T11:56:27.846Z,18.05
2022-12-19T11:58:55.348Z,25.23
2022-12-19T12:01:22.501Z,24.83
2022-12-19T12:04:01.713Z,22.17
2022-12-19T12:06:31.670Z,23.40
2022-12-19T12:11:00.409Z,16.83
2022-12-19T12:19:10.325Z,27.17
2022-12-19T12:21:52.691Z,32.72
2022-12-19T12:31:14.804Z,16.52
2022-12-19T12:31:15.191Z,21.17
2022-12-19T12:31:22.383Z,25.98
2022-12-19T12:31:46.587Z,17.45
2022-12-19T12:31:48.509Z,21.67
2022-12-19T12:35:38.341Z,22.77
2022-12-19T12:39:40.112Z,21.60
2022-12-19T12:42:07.344Z,15.93
2022-12-19T12:44:35.455Z,23.75
2022-12-19T12:47:03.535Z,28.27
2022-12-19T12:49:31.007Z,15.30
2022-12-19T12:51:58.713Z,14.20
2022-12-19T12:54:25.962Z,25.40
2022-12-19T12:56:55.356Z,11.45
2022-12-19T12:59:22.720Z,19.02
2022-12-19T13:01:50.095Z,14.90
2022-12-19T13:04:17.476Z,14.65
2022-12-19T13:06:44.798Z,14.38
2022-12-19T13:09:11.970Z,16.30
2022-12-19T13:11:58.216Z,21.50
2022-12-19T13:14:25.517Z,13.15
2022-12-19T13:16:53.101Z,22.90
2022-12-19T13:19:27.499Z,13.45
2022-12-19T13:21:55.858Z,17.50
2022-12-19T13:24:23.331Z,14.18
2022-12-19T13:26:51.313Z,17.40
2022-12-19T13:29:18.620Z,18.00
2022-12-19T13:31:47.241Z,24.20
2022-12-19T13:34:14.498Z,15.85
2022-12-19T13:39:47.685Z,22.02
2022-12-19T13:39:56.637Z,29.13
2022-12-19T13:42:35.125Z,16.67
2022-12-19T13:45:03.091Z,20.95
2022-12-19T13:47:30.265Z,21.77
2022-12-19T13:49:57.519Z,22.63
2022-12-19T13:52:24.864Z,15.55
2022-12-19T13:54:52.119Z,15.45
2022-12-19T13:57:19.299Z,22.85
2022-12-19T13:59:59.349Z,16.50
2022-12-19T14:02:28.061Z,20.77
2022-12-19T14:04:55.528Z,17.77
2022-12-19T14:07:27.387Z,18.83
2022-12-19T14:11:38.717Z,19.08
2022-12-19T14:13:46.221Z,20.73
2022-12-19T14:15:57.692Z,19.38
2022-12-19T14:18:42.827Z,20.75
2022-12-19T14:22:06.387Z,14.38
2022-12-19T14:23:59.471Z,22.95
2022-12-19T14:28:20.370Z,16.38
2022-12-19T14:29:14.199Z,16.33
2022-12-19T14:31:58.329Z,18.25
2022-12-19T14:35:47.725Z,17.30
2022-12-19T14:37:16.090Z,16.35
2022-12-19T14:40:03.384Z,21.23
2022-12-19T14:43:55.712Z,30.02
2022-12-19T14:52:51.102Z,39.90
2022-12-19T14:54:11.397Z,18.95
2022-12-19T14:54:26.071Z,19.35
2022-12-19T14:54:34.886Z,27.13
2022-12-19T14:56:59.199Z,12.65
2022-12-19T14:59:27.285Z,21.08
2022-12-19T15:01:54.592Z,26.25
2022-12-19T15:04:49.092Z,19.50
2022-12-19T15:07:12.236Z,18.40
2022-12-19T15:10:59.989Z,17.27
2022-12-19T15:14:46.967Z,22.40
2022-12-19T15:15:33.505Z,15.63
2022-12-19T15:18:00.720Z,13.70
2022-12-19T15:20:27.960Z,16.63
2022-12-19T15:22:55.197Z,19.38
2022-12-19T15:25:53.124Z,19.77
2022-12-19T15:28:10.210Z,15.60
2022-12-19T15:30:37.409Z,18.63
2022-12-19T15:33:04.778Z,15.23
2022-12-19T15:35:31.971Z,19.02
2022-12-19T15:37:59.380Z,14.45
2022-12-19T15:40:26.577Z,25.42
2022-12-19T15:42:53.919Z,14.93
2022-12-19T15:45:21.123Z,11.20
2022-12-19T15:47:48.420Z,10.75
2022-12-19T15:50:15.634Z,9.70
2022-12-19T15:52:42.891Z,8.05
2022-12-19T15:55:10.065Z,12.73
2022-12-19T15:57:37.889Z,13.00
2022-12-19T16:00:05.148Z,19.13
2022-12-19T16:05:21.752Z,15.43
2022-12-19T16:07:48.987Z,24.25
2022-12-19T16:10:16.309Z,16.30
2022-12-19T16:12:43.562Z,22.00
2022-12-19T16:15:10.776Z,16.52
2022-12-19T16:17:38.011Z,17.30
2022-12-19T16:20:05.227Z,18.80
2022-12-19T16:22:32.414Z,22.23
2022-12-19T16:24:59.764Z,21.45
2022-12-19T16:27:27.103Z,23.15
2022-12-19T16:29:54.415Z,30.23
2022-12-19T16:32:24.516Z,28.77
2022-12-19T16:34:52.517Z,36.28
2022-12-19T16:37:19.751Z,30.90
2022-12-19T16:39:47.012Z,37.50
2022-12-19T16:42:14.327Z,28.13
2022-12-19T16:44:41.610Z,23.27
2022-12-19T16:47:10.396Z,28.10
2022-12-19T16:49:38.832Z,28.02
2022-12-19T16:52:06.154Z,31.38
2022-12-19T16:54:33.460Z,32.08
2022-12-19T16:57:00.849Z,32.90
2022-12-19T16:59:28.069Z,27.45
2022-12-19T17:01:56.433Z,33.80
2022-12-19T17:04:24.013Z,34.15
2022-12-19T17:06:51.326Z,31.27
2022-12-19T17:09:18.594Z,37.10
2022-12-19T17:11:45.935Z,42.47
2022-12-19T17:14:13.267Z,30.48
2022-12-19T17:16:40.515Z,33.05
2022-12-19T17:19:07.849Z,30.42
2022-12-19T17:21:35.048Z,34.28
2022-12-19T17:24:02.299Z,36.05
2022-12-19T17:26:29.877Z,30.52
2022-12-19T17:28:57.092Z,38.35
2022-12-19T17:31:24.576Z,30.77
2022-12-19T17:33:51.874Z,31.48
2022-12-19T17:36:24.817Z,29.42
2022-12-19T17:38:53.481Z,28.90
2022-12-19T17:41:20.927Z,25.52
2022-12-19T17:43:48.168Z,25.80
2022-12-19T17:46:15.790Z,32.85
2022-12-19T17:48:43.647Z,25.48
2022-12-19T17:51:12.091Z,27.40
2022-12-19T17:53:39.478Z,35.08
2022-12-19T17:56:06.646Z,26.98
2022-12-19T17:58:33.917Z,29.23
2022-12-19T18:01:01.126Z,36.55
2022-12-19T18:03:28.521Z,27.30
2022-12-19T18:05:55.774Z,46.58
2022-12-19T18:08:23.084Z,38.00
2022-12-19T18:10:51.392Z,28.42
2022-12-19T18:13:18.604Z,32.47
2022-12-19T18:15:45.786Z,32.55
2022-12-19T18:18:13.023Z,30.25
2022-12-19T18:20:40.248Z,35.90
2022-12-19T18:23:07.513Z,44.63
2022-12-19T18:25:35.834Z,37.13
2022-12-19T18:28:03.031Z,45.30
2022-12-19T18:30:30.274Z,29.73
2022-12-19T18:32:57.586Z,36.20
2022-12-19T18:35:24.774Z,27.17
2022-12-19T18:37:52.053Z,25.25
2022-12-19T18:40:23.262Z,20.45
2022-12-19T18:42:53.258Z,24.08
2022-12-19T18:45:20.427Z,28.10
2022-12-19T18:47:51.435Z,22.55
2022-12-19T18:50:18.933Z,28.20
2022-12-19T18:52:46.183Z,38.00
2022-12-19T18:55:14.734Z,35.28
2022-12-19T18:57:42.969Z,28.92
2022-12-19T19:00:10.702Z,31.42
2022-12-19T19:02:38.064Z,45.63
2022-12-19T19:05:06.659Z,29.50
2022-12-19T19:07:34.024Z,39.03
2022-12-19T19:10:01.540Z,40.05
2022-12-19T19:12:45.842Z,34.58
2022-12-19T19:15:13.223Z,34.95
2022-12-19T19:17:40.548Z,49.55
2022-12-19T19:20:07.869Z,34.38
2022-12-19T19:22:35.241Z,23.20
2022-12-19T19:25:02.513Z,33.53
2022-12-19T19:27:29.757Z,33.65
2022-12-19T19:29:57.582Z,26.27
2022-12-19T19:32:24.897Z,32.00
2022-12-19T19:34:52.152Z,27.27
2022-12-19T19:37:19.467Z,45.20
2022-12-19T19:39:47.801Z,29.27
2022-12-19T19:42:15.088Z,25.50
2022-12-19T19:44:42.581Z,34.60
2022-12-19T19:47:09.787Z,41.45
2022-12-19T19:49:37.197Z,24.38
2022-12-19T19:52:04.371Z,19.85
2022-12-19T19:54:31.713Z,31.10
2022-12-19T19:56:58.952Z,23.60
2022-12-19T19:59:26.297Z,34.75
2022-12-19T20:01:54.427Z,25.15
2022-12-19T20:04:22.083Z,37.63
2022-12-19T20:06:49.282Z,41.65
2022-12-19T20:09:16.693Z,28.38
2022-12-19T20:11:44.008Z,33.95
2022-12-19T20:14:11.275Z,26.77
2022-12-19T20:16:38.629Z,41.08
2022-12-19T20:19:05.937Z,37.30
2022-12-19T20:21:33.416Z,26.08
2022-12-19T20:24:00.740Z,33.20
2022-12-19T20:26:27.938Z,25.83
2022-12-19T20:28:55.195Z,35.85
2022-12-19T20:31:22.533Z,30.52
2022-12-19T20:33:50.518Z,35.05
2022-12-19T20:36:17.873Z,25.33
2022-12-19T20:38:45.264Z,35.83
2022-12-19T20:41:12.467Z,29.52
2022-12-19T20:43:39.787Z,30.38
2022-12-19T20:46:07.143Z,43.05
2022-12-19T20:48:34.517Z,52.20
2022-12-19T20:51:01.768Z,29.92
2022-12-19T20:53:29.189Z,33.00
2022-12-19T20:55:58.402Z,36.90
2022-12-19T20:58:25.819Z,34.10
2022-12-19T21:00:53.412Z,36.45
2022-12-19T21:03:29.820Z,32.65
2022-12-19T21:05:57.652Z,34.13
2022-12-19T21:08:24.883Z,25.70
2022-12-19T21:10:52.130Z,35.72
2022-12-19T21:13:19.389Z,23.40
2022-12-19T21:15:47.603Z,24.60
2022-12-19T21:18:14.811Z,29.45
2022-12-19T21:20:42.085Z,25.80
2022-12-19T21:23:09.267Z,31.88
2022-12-19T21:25:36.545Z,28.55
2022-12-19T21:28:03.739Z,23.45
2022-12-19T21:30:30.954Z,25.55
2022-12-19T21:32:58.174Z,23.45
2022-12-19T21:35:25.428Z,34.63
2022-12-19T21:37:52.644Z,29.75
2022-12-19T21:40:19.911Z,27.20
2022-12-19T21:42:47.162Z,24.88
2022-12-19T21:45:14.422Z,31.27
2022-12-19T21:47:42.219Z,29.42
2022-12-19T21:50:09.523Z,30.50
2022-12-19T21:52:36.781Z,40.20
2022-12-19T21:55:04.238Z,22.17
2022-12-19T21:57:31.454Z,23.40
2022-12-19T21:59:58.720Z,30.23
2022-12-19T22:02:26.062Z,17.40
2022-12-19T22:04:53.426Z,32.10
2022-12-19T22:07:20.639Z,26.83
2022-12-19T22:09:48.049Z,31.40
2022-12-19T22:12:15.400Z,28.17
2022-12-19T22:14:42.780Z,32.95
2022-12-19T22:17:10.388Z,31.65
2022-12-19T22:19:37.582Z,28.17
2022-12-19T22:22:04.943Z,31.38
2022-12-19T22:24:32.214Z,18.88
2022-12-19T22:26:59.400Z,21.98
2022-12-19T22:29:26.632Z,35.55
2022-12-19T22:31:53.998Z,27.10
2022-12-19T22:34:21.253Z,26.98
2022-12-19T22:36:48.882Z,28.98
2022-12-19T22:39:16.179Z,33.47
2022-12-19T22:41:43.390Z,21.88
2022-12-19T22:44:10.642Z,31.05
2022-12-19T22:46:37.932Z,26.88
2022-12-19T22:49:05.135Z,20.05
2022-12-19T22:51:32.373Z,28.23
2022-12-19T22:53:59.682Z,23.45
2022-12-19T22:56:26.833Z,18.60
2022-12-19T22:58:54.083Z,27.80
2022-12-19T23:01:21.470Z,11.32
2022-12-19T23:03:48.870Z,21.95
2022-12-19T23:06:16.397Z,27.20
2022-12-19T23:08:43.607Z,19.10
2022-12-19T23:11:11.391Z,17.83
2022-12-19T23:13:38.571Z,24.08
2022-12-19T23:16:05.917Z,25.20
2022-12-19T23:18:33.127Z,21.60
2022-12-19T23:21:00.504Z,21.58
2022-12-19T23:23:28.569Z,24.08
2022-12-19T23:25:55.800Z,28.77
2022-12-19T23:28:22.944Z,20.00
2022-12-19T23:30:50.182Z,26.52
2022-12-19T23:33:17.435Z,19.67
2022-12-19T23:35:44.729Z,23.02
2022-12-19T23:38:13.050Z,15.95
2022-12-19T23:40:40.317Z,14.10
2022-12-19T23:43:07.684Z,21.83
2022-12-19T23:45:35.029Z,28.73
2022-12-19T23:48:02.721Z,20.30
2022-12-19T23:50:29.941Z,29.27
2022-12-19T23:52:57.170Z,21.17
2022-12-19T23:55:24.434Z,17.58
2022-12-19T23:57:51.724Z,17.50
